createdAt,value
2023-11-30T00:01:19.010Z,6.03
2023-11-30T00:03:45.856Z,5.57
2023-11-30T00:06:12.689Z,4.63
2023-11-30T00:08:39.404Z,5.25
2023-11-30T00:11:07.297Z,6.00
2023-11-30T00:13:34.009Z,5.28
2023-11-30T00:16:00.656Z,5.40
2023-11-30T00:18:31.575Z,6.13
2023-11-30T00:20:58.364Z,6.32
2023-11-30T00:23:26.431Z,5.60
2023-11-30T00:25:54.471Z,5.43
2023-11-30T00:28:21.193Z,5.20
2023-11-30T00:30:47.993Z,4.95
2023-11-30T00:33:14.779Z,5.28
2023-11-30T00:35:41.602Z,5.70
2023-11-30T00:38:08.542Z,6.03
2023-11-30T00:40:35.300Z,6.70
2023-11-30T00:43:03.221Z,5.13
2023-11-30T00:45:29.952Z,6.53
2023-11-30T00:47:56.964Z,4.95
2023-11-30T00:50:25.142Z,6.03
2023-11-30T00:52:51.857Z,5.63
2023-11-30T00:55:18.595Z,5.55
2023-11-30T00:57:45.303Z,5.82
2023-11-30T01:00:12.445Z,6.18
2023-11-30T01:02:39.716Z,6.10
2023-11-30T01:05:06.661Z,6.90
2023-11-30T01:07:35.603Z,6.18
2023-11-30T01:10:02.329Z,5.93
2023-11-30T01:12:30.186Z,6.47
2023-11-30T01:14:57.761Z,6.10
2023-11-30T01:19:51.324Z,5.18
2023-11-30T01:22:18.098Z,5.20
2023-11-30T01:24:45.258Z,5.75
2023-11-30T01:27:12.156Z,5.82
2023-11-30T01:29:40.184Z,5.50
2023-11-30T01:32:07.018Z,5.70
2023-11-30T01:34:34.131Z,6.10
2023-11-30T01:37:00.797Z,5.30
2023-11-30T01:39:27.863Z,5.40
2023-11-30T01:41:54.670Z,5.53
2023-11-30T01:44:21.455Z,6.35
2023-11-30T01:46:48.210Z,5.55
2023-11-30T01:49:17.002Z,6.13
2023-11-30T01:51:44.164Z,6.60
2023-11-30T01:54:11.199Z,6.00
2023-11-30T01:56:40.648Z,6.45
2023-11-30T01:59:08.974Z,6.03
2023-11-30T02:01:36.437Z,5.95
2023-11-30T02:06:35.259Z,5.10
2023-11-30T02:09:03.063Z,6.32
2023-11-30T02:11:29.802Z,6.10
2023-11-30T02:13:56.551Z,5.88
2023-11-30T02:16:24.658Z,6.60
2023-11-30T02:18:52.448Z,6.22
2023-11-30T02:21:19.173Z,6.00
2023-11-30T02:23:46.871Z,5.85
2023-11-30T02:26:13.804Z,5.45
2023-11-30T02:28:40.537Z,5.75
2023-11-30T02:31:07.289Z,5.90
2023-11-30T02:33:34.206Z,5.65
2023-11-30T02:36:00.988Z,5.75
2023-11-30T02:38:27.758Z,5.85
2023-11-30T02:40:54.754Z,5.60
2023-11-30T02:43:21.660Z,6.05
2023-11-30T02:45:48.382Z,5.75
2023-11-30T02:48:16.231Z,5.45
2023-11-30T02:50:42.963Z,5.78
2023-11-30T02:53:09.676Z,5.80
2023-11-30T02:55:36.368Z,5.85
2023-11-30T02:58:03.115Z,5.95
2023-11-30T03:03:38.849Z,5.57
2023-11-30T03:06:11.940Z,5.70
2023-11-30T03:08:39.008Z,6.03
2023-11-30T03:11:05.894Z,6.03
2023-11-30T03:13:32.540Z,6.07
2023-11-30T03:16:00.015Z,5.32
2023-11-30T03:20:53.785Z,6.50
2023-11-30T03:23:20.495Z,5.75
2023-11-30T03:25:47.283Z,6.47
2023-11-30T03:28:14.107Z,5.75
2023-11-30T03:30:40.897Z,6.88
2023-11-30T03:33:07.862Z,6.32
2023-11-30T03:35:34.741Z,5.43
2023-11-30T03:38:05.899Z,6.47
2023-11-30T03:40:33.928Z,7.40
2023-11-30T03:43:00.645Z,6.75
2023-11-30T03:45:27.821Z,6.85
2023-11-30T03:47:54.599Z,6.32
2023-11-30T03:50:21.387Z,6.18
2023-11-30T03:52:48.048Z,6.65
2023-11-30T03:55:15.356Z,6.22
2023-11-30T03:57:42.000Z,6.65
2023-11-30T04:00:14.171Z,6.72
2023-11-30T04:02:42.559Z,5.45
2023-11-30T04:05:11.850Z,6.05
2023-11-30T04:07:40.479Z,6.22
2023-11-30T04:10:08.686Z,5.78
2023-11-30T04:12:36.484Z,5.78
2023-11-30T04:15:05.774Z,5.78
2023-11-30T04:17:41.868Z,5.65
2023-11-30T04:20:09.989Z,5.53
2023-11-30T04:22:36.795Z,7.05
2023-11-30T04:25:03.640Z,5.97
2023-11-30T04:27:30.419Z,5.88
2023-11-30T04:29:57.189Z,6.32
2023-11-30T04:32:23.988Z,5.68
2023-11-30T04:34:50.703Z,6.85
2023-11-30T04:37:17.496Z,6.10
2023-11-30T04:39:45.281Z,5.38
2023-11-30T04:42:12.320Z,6.13
2023-11-30T04:44:39.380Z,6.10
2023-11-30T04:47:06.733Z,5.65
2023-11-30T04:49:33.853Z,5.60
2023-11-30T04:52:00.642Z,5.63
2023-11-30T04:54:28.579Z,6.10
2023-11-30T04:56:55.421Z,5.43
2023-11-30T04:59:24.332Z,5.25
2023-11-30T05:01:53.283Z,5.82
2023-11-30T05:04:20.093Z,5.72
2023-11-30T05:06:47.097Z,6.10
2023-11-30T05:09:14.439Z,5.55
2023-11-30T05:11:41.181Z,6.45
2023-11-30T05:14:07.986Z,5.95
2023-11-30T05:16:34.827Z,6.13
2023-11-30T05:19:01.625Z,6.25
2023-11-30T05:21:29.358Z,5.93
2023-11-30T05:23:56.412Z,6.32
2023-11-30T05:26:27.063Z,6.55
2023-11-30T05:28:53.892Z,8.50
2023-11-30T05:31:20.769Z,9.13
2023-11-30T05:33:47.569Z,7.47
2023-11-30T05:36:14.311Z,7.22
2023-11-30T05:38:42.237Z,8.02
2023-11-30T05:41:09.964Z,7.13
2023-11-30T05:43:38.373Z,7.20
2023-11-30T05:46:06.503Z,7.10
2023-11-30T05:48:37.369Z,6.43
2023-11-30T05:51:04.344Z,6.85
2023-11-30T05:53:31.305Z,7.28
2023-11-30T05:56:03.479Z,8.07
2023-11-30T05:58:30.291Z,7.40
2023-11-30T06:00:58.608Z,7.47
2023-11-30T06:03:25.836Z,7.47
2023-11-30T06:05:52.918Z,6.90
2023-11-30T06:08:19.628Z,6.65
2023-11-30T06:10:46.498Z,7.40
2023-11-30T06:13:15.784Z,6.95
2023-11-30T06:16:02.279Z,6.40
2023-11-30T06:18:29.091Z,7.25
2023-11-30T06:20:55.747Z,7.60
2023-11-30T06:23:22.428Z,7.93
2023-11-30T06:25:49.567Z,7.97
2023-11-30T06:28:17.985Z,7.97
2023-11-30T06:30:45.975Z,8.07
2023-11-30T06:33:12.728Z,6.82
2023-11-30T06:36:11.284Z,7.22
2023-11-30T06:38:38.448Z,6.82
2023-11-30T06:41:13.656Z,7.10
2023-11-30T06:43:41.705Z,7.22
2023-11-30T06:46:08.971Z,6.75
2023-11-30T06:48:44.245Z,7.00
2023-11-30T06:51:22.561Z,7.70
2023-11-30T06:53:49.346Z,7.00
2023-11-30T06:56:16.729Z,7.03
2023-11-30T06:58:43.758Z,7.43
2023-11-30T07:04:20.267Z,6.63
2023-11-30T07:06:47.111Z,7.00
2023-11-30T07:14:23.011Z,5.25
2023-11-30T07:16:50.100Z,7.10
2023-11-30T07:19:16.818Z,7.05
2023-11-30T07:21:43.479Z,8.10
2023-11-30T07:24:12.370Z,8.15
2023-11-30T07:26:39.961Z,8.35
2023-11-30T07:29:07.939Z,7.97
2023-11-30T07:31:36.519Z,7.55
2023-11-30T07:37:19.517Z,7.47
2023-11-30T07:39:46.310Z,7.20
2023-11-30T07:42:16.752Z,7.80
2023-11-30T07:44:45.644Z,7.72
2023-11-30T07:47:12.656Z,7.47
2023-11-30T07:49:49.344Z,7.60
2023-11-30T07:52:16.451Z,7.15
2023-11-30T07:54:44.632Z,7.75
2023-11-30T07:57:11.707Z,8.82
2023-11-30T07:59:38.495Z,8.80
2023-11-30T08:02:05.893Z,9.27
2023-11-30T08:07:01.699Z,8.60
2023-11-30T08:09:29.759Z,10.18
2023-11-30T08:11:56.485Z,9.32
2023-11-30T08:14:23.333Z,8.45
2023-11-30T08:16:50.071Z,9.05
2023-11-30T08:19:16.877Z,9.43
2023-11-30T08:21:44.527Z,8.77
2023-11-30T08:24:11.643Z,8.82
2023-11-30T08:27:14.819Z,8.52
2023-11-30T08:35:20.229Z,8.40
2023-11-30T08:37:47.053Z,8.48
2023-11-30T08:40:14.189Z,8.35
2023-11-30T08:42:41.105Z,8.57
2023-11-30T08:45:08.428Z,8.57
2023-11-30T08:47:35.292Z,9.20
2023-11-30T08:50:02.539Z,9.60
2023-11-30T08:52:29.272Z,9.20
2023-11-30T09:01:12.502Z,9.20
2023-11-30T09:03:40.889Z,9.07
2023-11-30T09:06:09.363Z,9.10
2023-11-30T09:08:36.341Z,8.68
2023-11-30T09:11:03.167Z,8.50
2023-11-30T09:13:29.894Z,9.02
2023-11-30T09:15:56.745Z,8.57
2023-11-30T09:18:23.564Z,9.50
2023-11-30T09:20:50.341Z,8.05
2023-11-30T09:23:17.081Z,8.10
2023-11-30T09:25:43.815Z,9.63
2023-11-30T09:28:14.682Z,8.57
2023-11-30T09:30:42.561Z,8.68
2023-11-30T09:33:10.032Z,10.48
2023-11-30T09:35:37.727Z,9.98
2023-11-30T09:38:05.117Z,9.35
2023-11-30T09:42:58.588Z,7.93
2023-11-30T09:45:26.126Z,7.53
2023-11-30T09:47:54.325Z,7.95
2023-11-30T09:50:21.314Z,8.05
2023-11-30T09:52:48.267Z,8.98
2023-11-30T09:55:17.210Z,8.13
2023-11-30T09:57:44.263Z,8.15
2023-11-30T10:00:12.884Z,7.55
2023-11-30T10:02:51.682Z,7.97
2023-11-30T10:05:18.407Z,7.47
2023-11-30T10:07:45.159Z,9.32
2023-11-30T10:10:12.604Z,9.38
2023-11-30T10:12:39.934Z,7.68
2023-11-30T10:17:34.279Z,7.57
2023-11-30T10:20:01.081Z,7.28
2023-11-30T10:22:29.218Z,7.45
2023-11-30T10:24:56.047Z,7.40
2023-11-30T10:27:25.713Z,7.10
2023-11-30T10:30:01.103Z,8.25
2023-11-30T10:32:28.984Z,7.50
2023-11-30T10:35:00.542Z,7.55
2023-11-30T10:37:30.190Z,6.80
2023-11-30T10:40:14.506Z,6.97
2023-11-30T10:42:48.750Z,7.50
2023-11-30T10:45:16.834Z,7.55
2023-11-30T10:47:44.984Z,7.15
2023-11-30T10:50:13.708Z,7.63
2023-11-30T10:52:44.721Z,6.78
2023-11-30T10:55:21.471Z,6.22
2023-11-30T10:57:48.710Z,6.32
2023-11-30T11:00:17.884Z,6.70
2023-11-30T11:02:46.769Z,6.00
2023-11-30T11:05:15.548Z,6.07
2023-11-30T11:07:53.178Z,6.95
2023-11-30T11:10:28.428Z,6.55
2023-11-30T11:13:00.596Z,6.72
2023-11-30T11:15:30.231Z,6.78
2023-11-30T11:18:05.019Z,6.68
2023-11-30T11:20:33.769Z,7.07
2023-11-30T11:23:10.199Z,6.68
2023-11-30T11:25:47.291Z,6.80
2023-11-30T11:28:18.650Z,7.43
2023-11-30T11:30:50.024Z,7.50
2023-11-30T11:33:18.804Z,7.15
2023-11-30T11:35:47.296Z,7.35
2023-11-30T11:38:14.584Z,6.88
2023-11-30T11:40:41.968Z,7.20
2023-11-30T11:43:09.416Z,7.60
2023-11-30T11:45:38.612Z,8.15
2023-11-30T11:48:05.859Z,7.07
2023-11-30T11:50:35.596Z,7.60
2023-11-30T11:53:04.838Z,7.00
2023-11-30T11:55:32.101Z,7.97
2023-11-30T11:58:00.161Z,7.82
2023-11-30T12:00:27.398Z,7.97
2023-11-30T12:03:08.092Z,7.53
2023-11-30T12:05:47.292Z,8.18
2023-11-30T12:08:16.453Z,7.07
2023-11-30T12:10:44.900Z,6.85
2023-11-30T12:13:14.018Z,7.03
2023-11-30T12:15:46.837Z,7.05
2023-11-30T12:18:15.494Z,6.35
2023-11-30T12:20:42.303Z,7.22
2023-11-30T12:23:09.040Z,6.28
2023-11-30T12:25:35.776Z,7.05
2023-11-30T12:28:02.485Z,7.25
2023-11-30T12:30:29.176Z,7.22
2023-11-30T12:32:56.068Z,7.53
2023-11-30T12:35:22.774Z,8.00
2023-11-30T12:37:52.554Z,7.38
2023-11-30T12:40:19.414Z,7.72
2023-11-30T12:42:46.290Z,8.23
2023-11-30T12:45:14.392Z,7.85
2023-11-30T12:47:42.109Z,8.45
2023-11-30T12:50:10.687Z,7.25
2023-11-30T12:52:37.650Z,8.13
2023-11-30T12:55:05.415Z,8.93
2023-11-30T13:01:10.490Z,8.23
2023-11-30T13:03:37.254Z,8.05
2023-11-30T13:06:05.361Z,8.88
2023-11-30T13:08:32.093Z,8.25
2023-11-30T13:10:59.554Z,8.40
2023-11-30T13:13:34.178Z,9.00
2023-11-30T13:16:09.023Z,8.30
2023-11-30T13:18:36.048Z,8.45
2023-11-30T13:21:02.854Z,8.68
2023-11-30T13:23:29.567Z,8.85
2023-11-30T13:25:56.312Z,9.48
2023-11-30T13:28:26.234Z,7.93
2023-11-30T13:30:53.853Z,9.15
2023-11-30T13:33:21.783Z,8.95
2023-11-30T13:35:49.858Z,9.48
2023-11-30T13:38:16.518Z,8.63
2023-11-30T13:40:43.183Z,8.85
2023-11-30T13:43:09.892Z,8.43
2023-11-30T13:45:36.577Z,9.18
2023-11-30T13:48:04.366Z,9.23
2023-11-30T13:50:37.492Z,8.32
2023-11-30T13:53:17.124Z,7.70
2023-11-30T13:55:44.865Z,8.82
2023-11-30T13:58:11.752Z,8.63
2023-11-30T14:00:41.548Z,8.48
2023-11-30T14:03:09.654Z,7.95
2023-11-30T14:05:36.408Z,8.65
2023-11-30T14:08:04.982Z,9.18
2023-11-30T14:10:31.707Z,9.73
2023-11-30T14:12:58.658Z,9.15
2023-11-30T14:15:25.859Z,9.23
2023-11-30T14:20:21.186Z,9.55
2023-11-30T14:22:48.400Z,7.47
2023-11-30T14:25:15.143Z,8.15
2023-11-30T14:27:42.506Z,9.18
2023-11-30T14:30:10.966Z,9.50
2023-11-30T14:32:40.567Z,8.07
2023-11-30T14:35:08.942Z,8.27
2023-11-30T14:37:35.728Z,7.63
2023-11-30T14:40:03.072Z,7.25
2023-11-30T14:44:59.942Z,7.88
2023-11-30T14:47:28.158Z,8.05
2023-11-30T14:49:54.896Z,7.78
2023-11-30T14:52:21.781Z,7.40
2023-11-30T14:54:53.536Z,8.23
2023-11-30T14:57:21.157Z,8.68
2023-11-30T14:59:48.463Z,7.68
2023-11-30T15:04:42.392Z,7.10
2023-11-30T15:07:09.316Z,7.68
2023-11-30T15:09:36.219Z,6.63
2023-11-30T15:12:03.011Z,6.90
2023-11-30T15:14:30.564Z,6.82
2023-11-30T15:16:57.341Z,5.72
2023-11-30T15:19:24.871Z,6.60
2023-11-30T15:21:53.128Z,6.82
2023-11-30T15:24:20.457Z,8.07
2023-11-30T15:29:13.855Z,6.00
2023-11-30T15:31:40.569Z,6.63
2023-11-30T15:34:08.375Z,6.30
2023-11-30T15:36:35.165Z,6.55
2023-11-30T15:39:12.574Z,6.75
2023-11-30T15:41:52.362Z,6.63
2023-11-30T15:44:21.898Z,7.43
2023-11-30T15:47:28.070Z,6.60
2023-11-30T15:50:13.491Z,5.95
2023-11-30T15:52:40.864Z,6.15
2023-11-30T15:55:12.005Z,6.30
2023-11-30T15:57:40.454Z,6.72
2023-11-30T16:00:08.904Z,6.28
2023-11-30T16:02:36.802Z,8.10
2023-11-30T16:05:04.235Z,6.32
2023-11-30T16:10:01.044Z,6.10
2023-11-30T16:12:31.461Z,6.72
2023-11-30T16:17:24.861Z,7.30
2023-11-30T16:19:52.918Z,7.88
2023-11-30T16:22:19.722Z,9.73
2023-11-30T16:24:47.840Z,9.77
2023-11-30T16:27:18.041Z,10.30
2023-11-30T16:29:46.065Z,10.77
2023-11-30T16:32:12.971Z,9.40
2023-11-30T16:34:39.676Z,10.50
2023-11-30T16:37:06.627Z,8.88
2023-11-30T16:39:33.455Z,7.82
2023-11-30T16:42:00.278Z,8.65
2023-11-30T16:44:28.008Z,8.88
2023-11-30T16:46:55.712Z,8.70
2023-11-30T16:49:24.997Z,8.95
2023-11-30T16:51:55.603Z,8.38
2023-11-30T16:54:26.297Z,9.07
2023-11-30T16:56:53.012Z,7.80
2023-11-30T16:59:19.728Z,8.05
2023-11-30T17:01:46.454Z,9.65
2023-11-30T17:04:14.000Z,8.60
2023-11-30T17:06:40.760Z,12.73
2023-11-30T17:09:10.000Z,13.00
2023-11-30T17:11:36.782Z,14.38
2023-11-30T17:14:03.551Z,15.35
2023-11-30T17:16:30.231Z,15.23
2023-11-30T17:18:57.439Z,16.30
2023-11-30T17:21:25.238Z,15.40
2023-11-30T17:23:56.000Z,12.75
2023-11-30T17:26:25.101Z,11.98
2023-11-30T17:28:53.510Z,11.55
2023-11-30T17:31:20.424Z,11.93
2023-11-30T17:33:48.116Z,10.30
2023-11-30T17:36:15.452Z,9.98
2023-11-30T17:38:42.263Z,10.27
2023-11-30T17:41:09.690Z,8.13
2023-11-30T17:43:36.860Z,8.25
2023-11-30T17:46:07.426Z,7.65
2023-11-30T17:48:34.355Z,7.50
2023-11-30T17:51:01.303Z,8.25
2023-11-30T17:53:30.398Z,8.77
2023-11-30T17:55:58.704Z,7.78
2023-11-30T17:58:29.890Z,8.50
2023-11-30T18:00:58.771Z,8.35
2023-11-30T18:03:26.330Z,8.48
2023-11-30T18:05:54.320Z,8.52
2023-11-30T18:08:21.876Z,8.52
2023-11-30T18:10:49.785Z,7.90
2023-11-30T18:13:16.929Z,9.02
2023-11-30T18:15:43.846Z,8.88
2023-11-30T18:18:11.052Z,9.23
2023-11-30T18:20:38.376Z,8.05
2023-11-30T18:23:05.533Z,8.35
2023-11-30T18:25:32.637Z,8.35
2023-11-30T18:27:59.449Z,9.32
2023-11-30T18:30:30.506Z,8.55
2023-11-30T18:32:58.888Z,9.70
2023-11-30T18:35:25.783Z,8.10
2023-11-30T18:37:52.709Z,8.75
2023-11-30T18:40:21.167Z,8.75
2023-11-30T18:42:48.135Z,7.97
2023-11-30T18:45:15.238Z,8.30
2023-11-30T18:47:41.918Z,8.55
2023-11-30T18:50:09.010Z,9.13
2023-11-30T18:52:38.015Z,8.45
2023-11-30T18:55:05.671Z,8.75
2023-11-30T18:57:32.537Z,8.63
2023-11-30T19:00:02.351Z,9.93
2023-11-30T19:02:29.421Z,9.38
2023-11-30T19:04:57.473Z,9.35
2023-11-30T19:07:24.338Z,9.23
2023-11-30T19:09:52.778Z,9.25
2023-11-30T19:12:20.081Z,8.80
2023-11-30T19:14:47.017Z,7.40
2023-11-30T19:17:13.734Z,12.07
2023-11-30T19:19:40.522Z,12.50
2023-11-30T19:25:44.639Z,10.98
2023-11-30T19:28:13.928Z,11.65
2023-11-30T19:30:43.385Z,11.43
2023-11-30T19:33:10.376Z,10.63
2023-11-30T19:35:38.423Z,10.05
2023-11-30T19:38:05.396Z,10.93
2023-11-30T19:40:32.066Z,10.85
2023-11-30T19:42:59.180Z,10.23
2023-11-30T19:45:25.916Z,9.93
2023-11-30T19:47:52.845Z,8.80
2023-11-30T19:50:19.659Z,9.48
2023-11-30T19:52:47.190Z,10.13
2023-11-30T19:55:15.534Z,9.85
2023-11-30T19:57:42.523Z,10.90
2023-11-30T20:00:11.704Z,11.32
2023-11-30T20:02:39.949Z,10.50
2023-11-30T20:05:06.940Z,13.40
2023-11-30T20:07:33.607Z,15.20
2023-11-30T20:10:00.466Z,18.25
2023-11-30T20:12:29.516Z,18.45
2023-11-30T20:14:56.259Z,20.02
2023-11-30T20:17:25.202Z,23.20
2023-11-30T20:19:51.950Z,22.00
2023-11-30T20:22:18.997Z,18.33
2023-11-30T20:24:45.982Z,17.30
2023-11-30T20:27:12.753Z,15.55
2023-11-30T20:29:41.948Z,13.88
2023-11-30T20:32:08.615Z,12.68
2023-11-30T20:34:35.361Z,11.23
2023-11-30T20:37:02.215Z,11.38
2023-11-30T20:39:29.265Z,10.90
2023-11-30T20:41:56.416Z,12.93
2023-11-30T20:44:23.135Z,12.50
2023-11-30T20:46:49.830Z,13.77
2023-11-30T20:49:16.505Z,12.95
2023-11-30T20:51:43.183Z,12.80
2023-11-30T20:54:11.876Z,12.35
2023-11-30T20:56:38.651Z,13.82
2023-11-30T21:02:35.046Z,11.70
2023-11-30T21:05:01.957Z,12.55
2023-11-30T21:07:28.804Z,12.00
2023-11-30T21:09:57.045Z,12.63
2023-11-30T21:12:24.023Z,11.43
2023-11-30T21:14:52.228Z,13.80
2023-11-30T21:17:20.360Z,14.23
2023-11-30T21:19:47.425Z,15.82
2023-11-30T21:22:17.119Z,17.88
2023-11-30T21:24:46.375Z,17.83
2023-11-30T21:27:15.009Z,16.05
2023-11-30T21:29:41.900Z,17.52
2023-11-30T21:32:08.844Z,16.58
2023-11-30T21:34:35.893Z,16.80
2023-11-30T21:37:04.617Z,16.60
2023-11-30T21:39:31.912Z,15.93
2023-11-30T21:41:59.153Z,14.43
2023-11-30T21:44:26.932Z,14.48
2023-11-30T21:46:54.782Z,14.75
2023-11-30T21:49:21.761Z,14.35
2023-11-30T21:51:48.736Z,13.88
2023-11-30T21:54:15.652Z,13.98
2023-11-30T21:56:42.502Z,13.93
2023-11-30T21:59:09.933Z,14.57
2023-11-30T22:06:32.160Z,12.68
2023-11-30T22:08:59.016Z,13.70
2023-11-30T22:11:25.915Z,13.50
2023-11-30T22:13:52.819Z,13.07
2023-11-30T22:16:26.474Z,13.35
2023-11-30T22:19:00.393Z,14.05
2023-11-30T22:23:54.959Z,11.68
2023-11-30T22:26:25.437Z,14.13
2023-11-30T22:28:52.626Z,12.70
2023-11-30T22:31:19.679Z,11.55
2023-11-30T22:33:49.500Z,12.38
2023-11-30T22:36:20.384Z,12.32
2023-11-30T22:38:47.399Z,13.63
2023-11-30T22:41:14.811Z,14.35
2023-11-30T22:43:41.805Z,16.92
2023-11-30T22:46:17.609Z,15.75
2023-11-30T22:48:45.129Z,15.88
2023-11-30T22:51:13.595Z,18.45
2023-11-30T22:53:40.341Z,17.92
2023-11-30T22:56:08.073Z,18.48
2023-11-30T22:58:34.868Z,16.75
2023-11-30T23:01:02.977Z,17.65
2023-11-30T23:03:30.688Z,18.60
2023-11-30T23:05:57.582Z,18.58
2023-11-30T23:08:24.527Z,15.90
2023-11-30T23:10:51.193Z,18.42
2023-11-30T23:13:17.982Z,17.50
2023-11-30T23:15:45.919Z,17.55
2023-11-30T23:18:14.845Z,19.85
2023-11-30T23:20:41.890Z,18.90
2023-11-30T23:23:08.639Z,20.05
2023-11-30T23:25:35.431Z,16.95
2023-11-30T23:28:02.410Z,18.83
2023-11-30T23:30:29.274Z,18.30
2023-11-30T23:32:58.155Z,17.55
2023-11-30T23:35:25.039Z,18.77
2023-11-30T23:37:51.790Z,18.90
2023-11-30T23:40:19.418Z,17.95
2023-11-30T23:42:46.758Z,17.35
2023-11-30T23:47:41.037Z,15.82
2023-11-30T23:50:08.367Z,18.30
2023-11-30T23:52:36.142Z,18.60
2023-11-30T23:55:03.178Z,18.60
2023-11-30T23:57:32.237Z,19.17
2023-11-30T23:59:59.966Z,20.98
